CheckWX is a tool to help pilots better visualize weather data.  It is not intended as a substitute for an official pre-flight weather briefing.

06:39:56 UTC

KAGC TAF
Allegheny County Airport
Pittsburgh, Pennsylvania, USA
KAGC 310520Z 3106/0106 28007KT P6SM OVC015 FM311600 32005KT P6SM OVC025 FM010300 01004KT P6SM OVC015

Mar-31@
06:00 UTC

Mar-31 @ 06:00 UTC

Mar-31@
16:00 UTC

Mar-31 @ 16:00 UTC

TAF KAGC 310520Z 3106/0106 28007KT P6SM OVC015
Wind
  • 280° at 7 KTS
Cloud Levels
  • Overcast at 1,500' AGL

Mar-31@
16:00 UTC

Mar-31 @ 16:00 UTC

Apr-1@
03:00 UTC

Apr-1 @ 03:00 UTC

FM311600 32005KT P6SM OVC025

From

From Standard forecast or significant change

Wind
  • 320° at 5 KTS
Cloud Levels
  • Overcast at 2,500' AGL

Apr-1@
03:00 UTC

Apr-1 @ 03:00 UTC

Apr-1@
06:00 UTC

Apr-1 @ 06:00 UTC

FM010300 01004KT P6SM OVC015

From

From Standard forecast or significant change

Wind
  • 010° at 4 KTS
Cloud Levels
  • Overcast at 1,500' AGL